sensor_id;sensor_type;location;lat;lon;timestamp;pressure;altitude;pressure_sealevel;temperature;humidity
84415;BME280;74706;51.520;17.224;2024-01-16T00:00:20;98683.31;;;-1.66;74.08
84415;BME280;74706;51.520;17.224;2024-01-16T00:09:07;98708.91;;;-1.67;73.67
84415;BME280;74706;51.520;17.224;2024-01-16T00:17:33;98722.56;;;-1.70;73.55
84415;BME280;74706;51.520;17.224;2024-01-16T00:26:06;98740.50;;;-1.74;73.15
84415;BME280;74706;51.520;17.224;2024-01-16T00:34:27;98758.41;;;-1.79;72.82
84415;BME280;74706;51.520;17.224;2024-01-16T00:42:48;98772.91;;;-1.86;72.18
84415;BME280;74706;51.520;17.224;2024-01-16T00:51:11;98799.34;;;-1.90;72.67
84415;BME280;74706;51.520;17.224;2024-01-16T00:59:37;98805.28;;;-2.01;72.96
84415;BME280;74706;51.520;17.224;2024-01-16T01:08:02;98816.34;;;-2.06;72.29
84415;BME280;74706;51.520;17.224;2024-01-16T01:16:24;98822.31;;;-2.10;72.00
84415;BME280;74706;51.520;17.224;2024-01-16T01:24:49;98810.31;;;-2.17;71.31
84415;BME280;74706;51.520;17.224;2024-01-16T01:33:21;98829.06;;;-2.21;71.73
84415;BME280;74706;51.520;17.224;2024-01-16T01:41:46;98836.75;;;-2.21;72.59
84415;BME280;74706;51.520;17.224;2024-01-16T01:50:12;98854.63;;;-2.27;72.98
84415;BME280;74706;51.520;17.224;2024-01-16T01:58:40;98864.81;;;-2.36;73.58
84415;BME280;74706;51.520;17.224;2024-01-16T02:07:08;98869.03;;;-2.43;73.54
84415;BME280;74706;51.520;17.224;2024-01-16T02:15:33;98881.81;;;-2.46;73.46
84415;BME280;74706;51.520;17.224;2024-01-16T02:23:59;98881.75;;;-2.51;73.63
84415;BME280;74706;51.520;17.224;2024-01-16T02:32:23;98891.97;;;-2.54;72.40
84415;BME280;74706;51.520;17.224;2024-01-16T02:41:07;98896.22;;;-2.59;72.79
84415;BME280;74706;51.520;17.224;2024-01-16T02:49:37;98900.47;;;-2.58;72.91
84415;BME280;74706;51.520;17.224;2024-01-16T02:58:01;98905.63;;;-2.55;73.08
84415;BME280;74706;51.520;17.224;2024-01-16T03:06:26;98922.66;;;-2.57;73.80
84415;BME280;74706;51.520;17.224;2024-01-16T03:14:50;98924.31;;;-2.60;73.65
84415;BME280;74706;51.520;17.224;2024-01-16T03:23:13;98949.91;;;-2.62;74.19
84415;BME280;74706;51.520;17.224;2024-01-16T03:31:42;98961.81;;;-2.64;73.83
84415;BME280;74706;51.520;17.224;2024-01-16T03:40:08;98951.56;;;-2.67;73.64
84415;BME280;74706;51.520;17.224;2024-01-16T03:48:34;98967.78;;;-2.63;73.50
84415;BME280;74706;51.520;17.224;2024-01-16T03:56:55;98961.78;;;-2.65;74.26
84415;BME280;74706;51.520;17.224;2024-01-16T04:05:17;98969.47;;;-2.62;74.21
84415;BME280;74706;51.520;17.224;2024-01-16T04:13:41;98995.94;;;-2.62;75.28
84415;BME280;74706;51.520;17.224;2024-01-16T04:22:03;99011.16;;;-2.73;77.35
84415;BME280;74706;51.520;17.224;2024-01-16T04:30:28;99034.13;;;-2.77;79.40
84415;BME280;74706;51.520;17.224;2024-01-16T04:38:51;99051.06;;;-2.88;81.38
84415;BME280;74706;51.520;17.224;2024-01-16T04:47:22;99039.06;;;-2.94;82.55
84415;BME280;74706;51.520;17.224;2024-01-16T04:55:43;99050.91;;;-2.99;82.82
84415;BME280;74706;51.520;17.224;2024-01-16T05:04:07;99045.75;;;-3.05;83.42
84415;BME280;74706;51.520;17.224;2024-01-16T05:12:32;99061.03;;;-3.08;83.95
84415;BME280;74706;51.520;17.224;2024-01-16T05:20:54;99059.31;;;-3.12;84.16
84415;BME280;74706;51.520;17.224;2024-01-16T05:29:22;99053.34;;;-3.10;84.09
84415;BME280;74706;51.520;17.224;2024-01-16T05:37:48;99076.34;;;-3.11;83.84
84415;BME280;74706;51.520;17.224;2024-01-16T05:46:20;99080.53;;;-3.18;84.17
84415;BME280;74706;51.520;17.224;2024-01-16T05:54:52;99088.97;;;-3.22;83.64
84415;BME280;74706;51.520;17.224;2024-01-16T06:03:19;99098.31;;;-3.26;83.79
84415;BME280;74706;51.520;17.224;2024-01-16T06:11:42;99105.81;;;-3.36;83.44
84415;BME280;74706;51.520;17.224;2024-01-16T06:20:06;99119.31;;;-3.44;82.91
84415;BME280;74706;51.520;17.224;2024-01-16T06:28:31;99135.28;;;-3.58;82.94
84415;BME280;74706;51.520;17.224;2024-01-16T06:36:56;99142.72;;;-3.72;82.49
84415;BME280;74706;51.520;17.224;2024-01-16T06:45:18;99168.03;;;-3.88;82.29
84415;BME280;74706;51.520;17.224;2024-01-16T06:53:42;99188.75;;;-4.18;80.48
84415;BME280;74706;51.520;17.224;2024-01-16T07:02:04;99205.44;;;-4.34;80.64
84415;BME280;74706;51.520;17.224;2024-01-16T07:10:27;99224.53;;;-4.57;80.36
84415;BME280;74706;51.520;17.224;2024-01-16T07:18:48;99230.47;;;-4.58;80.97
84415;BME280;74706;51.520;17.224;2024-01-16T07:27:10;99251.88;;;-4.50;81.08
84415;BME280;74706;51.520;17.224;2024-01-16T07:35:37;99264.59;;;-4.52;81.82
84415;BME280;74706;51.520;17.224;2024-01-16T07:44:04;99274.97;;;-4.42;82.65
84415;BME280;74706;51.520;17.224;2024-01-16T07:52:28;99298.09;;;-4.35;83.61
84415;BME280;74706;51.520;17.224;2024-01-16T08:00:50;99309.31;;;-4.26;83.97
84415;BME280;74706;51.520;17.224;2024-01-16T08:09:12;99329.88;;;-4.19;84.71
84415;BME280;74706;51.520;17.224;2024-01-16T08:17:34;99345.50;;;-4.03;85.27
84415;BME280;74706;51.520;17.224;2024-01-16T08:25:56;99349.97;;;-3.92;85.44
84415;BME280;74706;51.520;17.224;2024-01-16T08:34:19;99361.31;;;-3.79;85.55
84415;BME280;74706;51.520;17.224;2024-01-16T08:42:41;99359.13;;;-3.59;85.76
84415;BME280;74706;51.520;17.224;2024-01-16T08:51:07;99351.06;;;-3.35;85.70
84415;BME280;74706;51.520;17.224;2024-01-16T08:59:32;99369.22;;;-3.20;85.40
84415;BME280;74706;51.520;17.224;2024-01-16T09:07:55;99393.31;;;-3.07;84.79
84415;BME280;74706;51.520;17.224;2024-01-16T09:16:27;99390.03;;;-2.98;84.89
84415;BME280;74706;51.520;17.224;2024-01-16T09:24:50;99409.94;;;-2.80;84.45
84415;BME280;74706;51.520;17.224;2024-01-16T09:33:25;99407.69;;;-2.62;83.89
84415;BME280;74706;51.520;17.224;2024-01-16T09:41:49;99407.91;;;-2.45;83.76
84415;BME280;74706;51.520;17.224;2024-01-16T09:50:13;99419.75;;;-2.52;83.26
84415;BME280;74706;51.520;17.224;2024-01-16T09:58:46;99423.84;;;-2.63;82.57
84415;BME280;74706;51.520;17.224;2024-01-16T10:07:20;99432.38;;;-2.64;82.38
84415;BME280;74706;51.520;17.224;2024-01-16T10:15:54;99436.63;;;-2.64;81.96
84415;BME280;74706;51.520;17.224;2024-01-16T10:24:19;99452.81;;;-2.64;81.24
84415;BME280;74706;51.520;17.224;2024-01-16T10:32:45;99454.81;;;-2.46;81.34
84415;BME280;74706;51.520;17.224;2024-01-16T10:41:17;99472.97;;;-2.31;80.52
84415;BME280;74706;51.520;17.224;2024-01-16T10:49:43;99471.31;;;-2.27;79.97
84415;BME280;74706;51.520;17.224;2024-01-16T10:58:16;99481.56;;;-2.27;80.11
84415;BME280;74706;51.520;17.224;2024-01-16T11:06:42;99472.13;;;-2.28;79.60
84415;BME280;74706;51.520;17.224;2024-01-16T11:15:08;99481.50;;;-2.30;79.85
84415;BME280;74706;51.520;17.224;2024-01-16T11:23:37;99484.13;;;-2.26;80.27
84415;BME280;74706;51.520;17.224;2024-01-16T11:32:02;99491.88;;;-2.21;80.13
84415;BME280;74706;51.520;17.224;2024-01-16T11:40:29;99485.13;;;-2.16;80.20
84415;BME280;74706;51.520;17.224;2024-01-16T11:49:03;99470.75;;;-2.08;80.29
84415;BME280;74706;51.520;17.224;2024-01-16T11:57:59;99481.09;;;-2.01;80.12
84415;BME280;74706;51.520;17.224;2024-01-16T12:15:21;99495.59;;;-2.02;79.17
84415;BME280;74706;51.520;17.224;2024-01-16T12:23:46;99504.00;;;-2.09;78.33
84415;BME280;74706;51.520;17.224;2024-01-16T12:32:13;99502.34;;;-2.07;78.30
84415;BME280;74706;51.520;17.224;2024-01-16T12:40:50;99516.66;;;-2.17;77.70
84415;BME280;74706;51.520;17.224;2024-01-16T12:49:20;99519.31;;;-2.12;78.59
84415;BME280;74706;51.520;17.224;2024-01-16T12:57:46;99521.16;;;-2.05;79.22
84415;BME280;74706;51.520;17.224;2024-01-16T13:06:10;99528.88;;;-2.00;78.38
84415;BME280;74706;51.520;17.224;2024-01-16T13:14:35;99530.66;;;-1.96;78.72
84415;BME280;74706;51.520;17.224;2024-01-16T13:23:13;99543.50;;;-1.93;78.61
84415;BME280;74706;51.520;17.224;2024-01-16T13:31:39;99540.94;;;-1.93;78.54
84415;BME280;74706;51.520;17.224;2024-01-16T13:40:07;99526.44;;;-1.93;79.01
84415;BME280;74706;51.520;17.224;2024-01-16T13:48:41;99526.47;;;-1.91;79.13
84415;BME280;74706;51.520;17.224;2024-01-16T13:57:05;99546.16;;;-1.87;79.15
84415;BME280;74706;51.520;17.224;2024-01-16T14:05:31;99546.13;;;-1.90;79.10
84415;BME280;74706;51.520;17.224;2024-01-16T14:13:58;99554.56;;;-1.94;79.02
84415;BME280;74706;51.520;17.224;2024-01-16T14:31:13;99547.56;;;-2.08;79.26
84415;BME280;74706;51.520;17.224;2024-01-16T14:39:37;99550.78;;;-2.18;79.34
84415;BME280;74706;51.520;17.224;2024-01-16T14:57:16;99561.44;;;-2.43;79.95
84415;BME280;74706;51.520;17.224;2024-01-16T15:05:41;99569.84;;;-2.51;80.12
84415;BME280;74706;51.520;17.224;2024-01-16T15:14:03;99568.03;;;-2.58;80.50
84415;BME280;74706;51.520;17.224;2024-01-16T15:22:27;99590.09;;;-2.63;80.96
84415;BME280;74706;51.520;17.224;2024-01-16T15:30:50;99585.69;;;-2.70;80.95
84415;BME280;74706;51.520;17.224;2024-01-16T15:39:16;99599.22;;;-2.76;81.11
84415;BME280;74706;51.520;17.224;2024-01-16T15:47:41;99597.41;;;-2.81;81.16
84415;BME280;74706;51.520;17.224;2024-01-16T15:56:05;99599.94;;;-2.83;81.70
84415;BME280;74706;51.520;17.224;2024-01-16T16:04:27;99590.56;;;-2.82;81.56
84415;BME280;74706;51.520;17.224;2024-01-16T16:13:01;99593.13;;;-2.82;81.80
84415;BME280;74706;51.520;17.224;2024-01-16T16:21:29;99596.50;;;-2.83;82.29
84415;BME280;74706;51.520;17.224;2024-01-16T16:29:52;99593.00;;;-2.90;82.35
84415;BME280;74706;51.520;17.224;2024-01-16T16:38:22;99597.09;;;-2.97;81.91
84415;BME280;74706;51.520;17.224;2024-01-16T16:46:44;99603.78;;;-3.03;82.08
84415;BME280;74706;51.520;17.224;2024-01-16T16:55:07;99606.19;;;-3.11;82.44
84415;BME280;74706;51.520;17.224;2024-01-16T17:03:33;99596.66;;;-3.18;82.05
84415;BME280;74706;51.520;17.224;2024-01-16T17:11:55;99597.34;;;-3.25;82.12
84415;BME280;74706;51.520;17.224;2024-01-16T17:20:18;99600.47;;;-3.39;82.44
84415;BME280;74706;51.520;17.224;2024-01-16T17:28:40;99610.59;;;-3.43;82.92
84415;BME280;74706;51.520;17.224;2024-01-16T17:37:03;99604.53;;;-3.47;83.79
84415;BME280;74706;51.520;17.224;2024-01-16T17:45:24;99624.16;;;-3.46;83.83
84415;BME280;74706;51.520;17.224;2024-01-16T17:53:47;99625.75;;;-3.49;84.16
84415;BME280;74706;51.520;17.224;2024-01-16T18:02:10;99620.63;;;-3.51;84.32
84415;BME280;74706;51.520;17.224;2024-01-16T18:10:35;99635.09;;;-3.51;84.69
84415;BME280;74706;51.520;17.224;2024-01-16T18:18:57;99635.91;;;-3.52;85.16
84415;BME280;74706;51.520;17.224;2024-01-16T18:27:20;99639.31;;;-3.53;85.53
84415;BME280;74706;51.520;17.224;2024-01-16T18:35:41;99617.88;;;-3.60;85.47
84415;BME280;74706;51.520;17.224;2024-01-16T18:44:03;99613.59;;;-3.61;85.29
84415;BME280;74706;51.520;17.224;2024-01-16T18:52:28;99636.69;;;-3.55;85.70
84415;BME280;74706;51.520;17.224;2024-01-16T19:00:54;99634.16;;;-3.55;85.59
84415;BME280;74706;51.520;17.224;2024-01-16T19:09:22;99626.47;;;-3.55;85.73
84415;BME280;74706;51.520;17.224;2024-01-16T19:17:48;99638.44;;;-3.54;85.43
84415;BME280;74706;51.520;17.224;2024-01-16T19:26:12;99636.69;;;-3.55;85.59
84415;BME280;74706;51.520;17.224;2024-01-16T19:34:34;99643.50;;;-3.57;85.28
84415;BME280;74706;51.520;17.224;2024-01-16T19:42:56;99651.94;;;-3.58;84.93
84415;BME280;74706;51.520;17.224;2024-01-16T19:51:26;99652.72;;;-3.62;85.04
84415;BME280;74706;51.520;17.224;2024-01-16T19:59:48;99642.38;;;-3.68;84.62
84415;BME280;74706;51.520;17.224;2024-01-16T20:08:11;99650.03;;;-3.68;84.49
84415;BME280;74706;51.520;17.224;2024-01-16T20:16:34;99647.34;;;-3.73;83.76
84415;BME280;74706;51.520;17.224;2024-01-16T20:24:58;99648.94;;;-3.78;83.84
84415;BME280;74706;51.520;17.224;2024-01-16T20:33:21;99647.16;;;-3.80;83.46
84415;BME280;74706;51.520;17.224;2024-01-16T20:41:45;99639.56;;;-3.77;83.34
84415;BME280;74706;51.520;17.224;2024-01-16T20:50:08;99653.25;;;-3.75;83.35
84415;BME280;74706;51.520;17.224;2024-01-16T20:58:33;99646.50;;;-3.73;83.21
84415;BME280;74706;51.520;17.224;2024-01-16T21:06:59;99640.69;;;-3.68;82.62
84415;BME280;74706;51.520;17.224;2024-01-16T21:15:28;99646.72;;;-3.64;83.04
84415;BME280;74706;51.520;17.224;2024-01-16T21:23:59;99638.31;;;-3.60;82.78
84415;BME280;74706;51.520;17.224;2024-01-16T21:32:26;99634.06;;;-3.58;82.42
84415;BME280;74706;51.520;17.224;2024-01-16T21:40:53;99637.53;;;-3.56;82.18
84415;BME280;74706;51.520;17.224;2024-01-16T21:49:18;99637.47;;;-3.59;81.82
84415;BME280;74706;51.520;17.224;2024-01-16T21:57:44;99642.47;;;-3.64;81.58
84415;BME280;74706;51.520;17.224;2024-01-16T22:06:11;99640.63;;;-3.69;81.51
84415;BME280;74706;51.520;17.224;2024-01-16T22:14:38;99624.25;;;-3.77;81.35
84415;BME280;74706;51.520;17.224;2024-01-16T22:23:06;99637.78;;;-3.81;81.36
84415;BME280;74706;51.520;17.224;2024-01-16T22:31:31;99631.69;;;-3.87;81.35
84415;BME280;74706;51.520;17.224;2024-01-16T22:39:59;99630.00;;;-3.88;82.14
84415;BME280;74706;51.520;17.224;2024-01-16T22:48:27;99624.91;;;-3.86;82.13
84415;BME280;74706;51.520;17.224;2024-01-16T22:56:52;99609.50;;;-3.91;81.96
84415;BME280;74706;51.520;17.224;2024-01-16T23:05:17;99610.22;;;-3.95;81.99
84415;BME280;74706;51.520;17.224;2024-01-16T23:13:42;99623.69;;;-4.02;82.09
84415;BME280;74706;51.520;17.224;2024-01-16T23:22:20;99619.28;;;-4.08;81.83
84415;BME280;74706;51.520;17.224;2024-01-16T23:30:55;99609.88;;;-4.10;82.15
84415;BME280;74706;51.520;17.224;2024-01-16T23:39:20;99600.38;;;-4.16;82.20
84415;BME280;74706;51.520;17.224;2024-01-16T23:47:43;99589.94;;;-4.25;82.30
84415;BME280;74706;51.520;17.224;2024-01-16T23:56:13;99588.84;;;-4.35;82.12
